sensor_id;sensor_type;location;lat;lon;timestamp;pressure;altitude;pressure_sealevel;temperature;humidity
5691;BME280;2870;42.680;23.364;2023-07-31T00:01:44;94767.97;;;23.14;76.33
5691;BME280;2870;42.680;23.364;2023-07-31T00:04:11;94769.94;;;22.92;76.81
5691;BME280;2870;42.680;23.364;2023-07-31T00:06:37;94770.44;;;23.04;76.82
5691;BME280;2870;42.680;23.364;2023-07-31T00:09:06;94765.59;;;23.09;76.16
5691;BME280;2870;42.680;23.364;2023-07-31T00:11:32;94769.19;;;23.27;76.27
5691;BME280;2870;42.680;23.364;2023-07-31T00:13:59;94768.13;;;23.00;74.87
5691;BME280;2870;42.680;23.364;2023-07-31T00:16:26;94773.44;;;23.08;76.95
5691;BME280;2870;42.680;23.364;2023-07-31T00:18:53;94777.63;;;23.05;75.26
5691;BME280;2870;42.680;23.364;2023-07-31T00:21:20;94776.72;;;23.18;76.18
5691;BME280;2870;42.680;23.364;2023-07-31T00:23:46;94772.69;;;23.25;75.63
5691;BME280;2870;42.680;23.364;2023-07-31T00:26:15;94715.47;;;22.54;75.40
5691;BME280;2870;42.680;23.364;2023-07-31T00:28:41;94768.97;;;23.03;76.73
5691;BME280;2870;42.680;23.364;2023-07-31T00:31:09;94761.78;;;22.68;77.02
5691;BME280;2870;42.680;23.364;2023-07-31T00:33:35;94755.03;;;22.78;77.77
5691;BME280;2870;42.680;23.364;2023-07-31T00:36:02;94745.31;;;22.85;77.09
5691;BME280;2870;42.680;23.364;2023-07-31T00:38:29;94731.75;;;22.85;77.54
5691;BME280;2870;42.680;23.364;2023-07-31T00:40:56;94733.72;;;22.81;78.13
5691;BME280;2870;42.680;23.364;2023-07-31T00:43:24;94731.00;;;22.85;78.75
5691;BME280;2870;42.680;23.364;2023-07-31T00:45:51;94733.53;;;22.59;80.15
5691;BME280;2870;42.680;23.364;2023-07-31T00:48:18;94747.91;;;22.61;81.04
5691;BME280;2870;42.680;23.364;2023-07-31T00:50:45;94746.28;;;22.73;80.74
5691;BME280;2870;42.680;23.364;2023-07-31T00:53:12;94749.00;;;22.69;81.35
5691;BME280;2870;42.680;23.364;2023-07-31T00:55:40;94744.06;;;22.20;83.08
5691;BME280;2870;42.680;23.364;2023-07-31T00:58:06;94745.13;;;21.80;85.53
5691;BME280;2870;42.680;23.364;2023-07-31T01:00:34;94736.88;;;22.19;84.29
5691;BME280;2870;42.680;23.364;2023-07-31T01:03:01;94729.44;;;22.12;84.21
5691;BME280;2870;42.680;23.364;2023-07-31T01:05:41;94730.91;;;21.98;85.72
5691;BME280;2870;42.680;23.364;2023-07-31T01:08:17;94723.75;;;22.12;86.50
5691;BME280;2870;42.680;23.364;2023-07-31T01:10:49;94727.31;;;22.13;85.43
5691;BME280;2870;42.680;23.364;2023-07-31T01:13:17;94727.13;;;21.93;86.85
5691;BME280;2870;42.680;23.364;2023-07-31T01:15:46;94733.28;;;22.19;86.52
5691;BME280;2870;42.680;23.364;2023-07-31T01:18:13;94732.50;;;21.69;88.15
5691;BME280;2870;42.680;23.364;2023-07-31T01:20:42;94724.69;;;21.69;88.21
5691;BME280;2870;42.680;23.364;2023-07-31T01:23:27;94719.50;;;21.82;88.16
5691;BME280;2870;42.680;23.364;2023-07-31T01:26:01;94714.84;;;22.06;87.84
5691;BME280;2870;42.680;23.364;2023-07-31T01:28:40;94710.25;;;22.15;86.74
5691;BME280;2870;42.680;23.364;2023-07-31T01:31:12;94723.38;;;21.88;87.81
5691;BME280;2870;42.680;23.364;2023-07-31T01:33:41;94717.69;;;21.73;88.78
5691;BME280;2870;42.680;23.364;2023-07-31T01:36:08;94705.91;;;21.64;89.43
5691;BME280;2870;42.680;23.364;2023-07-31T01:38:35;94705.72;;;21.60;90.03
5691;BME280;2870;42.680;23.364;2023-07-31T01:41:03;94719.09;;;21.56;90.54
5691;BME280;2870;42.680;23.364;2023-07-31T01:43:30;94706.63;;;21.49;91.03
5691;BME280;2870;42.680;23.364;2023-07-31T01:45:56;94714.66;;;21.68;90.31
5691;BME280;2870;42.680;23.364;2023-07-31T01:48:23;94708.28;;;21.86;89.98
5691;BME280;2870;42.680;23.364;2023-07-31T01:50:50;94710.41;;;21.54;91.50
5691;BME280;2870;42.680;23.364;2023-07-31T01:53:17;94708.84;;;21.35;92.61
5691;BME280;2870;42.680;23.364;2023-07-31T01:55:44;94720.00;;;21.45;92.72
5691;BME280;2870;42.680;23.364;2023-07-31T01:58:12;94728.00;;;21.48;92.82
5691;BME280;2870;42.680;23.364;2023-07-31T02:03:21;94721.56;;;21.48;92.95
5691;BME280;2870;42.680;23.364;2023-07-31T02:05:49;94725.22;;;21.66;92.21
5691;BME280;2870;42.680;23.364;2023-07-31T02:08:16;94726.53;;;21.63;92.39
5691;BME280;2870;42.680;23.364;2023-07-31T02:10:43;94727.00;;;21.57;93.06
5691;BME280;2870;42.680;23.364;2023-07-31T02:13:09;94735.16;;;21.49;93.52
5691;BME280;2870;42.680;23.364;2023-07-31T02:15:38;94745.66;;;21.60;93.60
5691;BME280;2870;42.680;23.364;2023-07-31T02:18:04;94736.47;;;21.46;94.31
5691;BME280;2870;42.680;23.364;2023-07-31T02:20:33;94737.47;;;21.68;93.33
5691;BME280;2870;42.680;23.364;2023-07-31T02:23:00;94737.03;;;21.58;93.85
5691;BME280;2870;42.680;23.364;2023-07-31T02:25:27;94742.38;;;21.50;94.49
5691;BME280;2870;42.680;23.364;2023-07-31T02:27:54;94736.03;;;21.67;93.96
5691;BME280;2870;42.680;23.364;2023-07-31T02:30:20;94739.88;;;21.90;92.85
5691;BME280;2870;42.680;23.364;2023-07-31T02:32:48;94732.03;;;21.75;93.75
5691;BME280;2870;42.680;23.364;2023-07-31T02:35:15;94736.47;;;21.62;94.17
5691;BME280;2870;42.680;23.364;2023-07-31T02:37:43;94743.09;;;21.66;93.90
5691;BME280;2870;42.680;23.364;2023-07-31T02:40:11;94730.78;;;21.62;94.24
5691;BME280;2870;42.680;23.364;2023-07-31T02:42:38;94736.03;;;21.67;94.35
5691;BME280;2870;42.680;23.364;2023-07-31T02:45:06;94727.06;;;21.91;93.42
5691;BME280;2870;42.680;23.364;2023-07-31T02:47:32;94732.94;;;21.95;92.67
5691;BME280;2870;42.680;23.364;2023-07-31T02:50:01;94746.84;;;22.03;92.63
5691;BME280;2870;42.680;23.364;2023-07-31T02:52:27;94750.25;;;22.15;91.70
5691;BME280;2870;42.680;23.364;2023-07-31T02:54:54;94743.34;;;21.88;92.58
5691;BME280;2870;42.680;23.364;2023-07-31T02:57:21;94746.22;;;21.88;92.73
5691;BME280;2870;42.680;23.364;2023-07-31T02:59:48;94753.03;;;21.65;94.27
5691;BME280;2870;42.680;23.364;2023-07-31T03:02:15;94755.25;;;21.83;94.09
5691;BME280;2870;42.680;23.364;2023-07-31T03:04:42;94752.09;;;22.08;92.09
5691;BME280;2870;42.680;23.364;2023-07-31T03:07:10;94758.28;;;22.03;91.72
5691;BME280;2870;42.680;23.364;2023-07-31T03:09:37;94765.09;;;22.11;91.33
5691;BME280;2870;42.680;23.364;2023-07-31T03:12:04;94759.06;;;22.37;89.77
5691;BME280;2870;42.680;23.364;2023-07-31T03:14:31;94769.28;;;22.42;89.64
5691;BME280;2870;42.680;23.364;2023-07-31T03:16:59;94766.25;;;22.06;91.16
5691;BME280;2870;42.680;23.364;2023-07-31T03:19:26;94763.81;;;22.14;91.18
5691;BME280;2870;42.680;23.364;2023-07-31T03:21:52;94769.09;;;22.38;89.88
5691;BME280;2870;42.680;23.364;2023-07-31T03:24:21;94763.50;;;22.08;91.10
5691;BME280;2870;42.680;23.364;2023-07-31T03:26:47;94776.50;;;22.27;90.37
5691;BME280;2870;42.680;23.364;2023-07-31T03:29:14;94776.41;;;22.09;91.25
5691;BME280;2870;42.680;23.364;2023-07-31T03:31:41;94773.56;;;21.93;91.92
5691;BME280;2870;42.680;23.364;2023-07-31T03:34:08;94772.91;;;21.95;92.05
5691;BME280;2870;42.680;23.364;2023-07-31T03:36:34;94772.75;;;21.91;92.26
5691;BME280;2870;42.680;23.364;2023-07-31T03:39:01;94770.97;;;22.00;92.01
5691;BME280;2870;42.680;23.364;2023-07-31T03:41:30;94777.34;;;22.14;91.23
5691;BME280;2870;42.680;23.364;2023-07-31T03:43:56;94774.41;;;21.96;91.96
5691;BME280;2870;42.680;23.364;2023-07-31T03:46:24;94785.34;;;22.02;91.96
5691;BME280;2870;42.680;23.364;2023-07-31T03:48:51;94776.06;;;22.01;91.55
5691;BME280;2870;42.680;23.364;2023-07-31T03:51:17;94776.06;;;21.85;92.19
5691;BME280;2870;42.680;23.364;2023-07-31T03:53:45;94781.31;;;21.91;92.12
5691;BME280;2870;42.680;23.364;2023-07-31T03:56:11;94779.38;;;22.11;91.26
5691;BME280;2870;42.680;23.364;2023-07-31T03:58:40;94785.53;;;22.21;89.81
5691;BME280;2870;42.680;23.364;2023-07-31T04:01:06;94784.34;;;22.11;90.05
5691;BME280;2870;42.680;23.364;2023-07-31T04:03:33;94787.94;;;22.11;89.79
5691;BME280;2870;42.680;23.364;2023-07-31T04:06:00;94785.06;;;22.27;89.61
5691;BME280;2870;42.680;23.364;2023-07-31T04:08:27;94791.50;;;22.28;88.78
5691;BME280;2870;42.680;23.364;2023-07-31T04:10:53;94793.53;;;22.41;87.84
5691;BME280;2870;42.680;23.364;2023-07-31T04:13:21;94779.19;;;22.07;89.28
5691;BME280;2870;42.680;23.364;2023-07-31T04:15:50;94790.03;;;22.27;88.53
5691;BME280;2870;42.680;23.364;2023-07-31T04:18:17;94768.31;;;21.88;89.33
5691;BME280;2870;42.680;23.364;2023-07-31T04:20:44;94806.50;;;22.44;88.42
5691;BME280;2870;42.680;23.364;2023-07-31T04:23:11;94818.34;;;22.20;89.14
5691;BME280;2870;42.680;23.364;2023-07-31T04:25:37;94809.72;;;22.52;87.67
5691;BME280;2870;42.680;23.364;2023-07-31T04:28:04;94808.88;;;22.49;87.62
5691;BME280;2870;42.680;23.364;2023-07-31T04:30:31;94808.19;;;22.67;87.21
5691;BME280;2870;42.680;23.364;2023-07-31T04:32:59;94816.72;;;22.49;86.84
5691;BME280;2870;42.680;23.364;2023-07-31T04:35:27;94815.16;;;22.80;85.92
5691;BME280;2870;42.680;23.364;2023-07-31T04:37:54;94829.28;;;22.42;86.96
5691;BME280;2870;42.680;23.364;2023-07-31T04:40:21;94819.06;;;22.37;87.50
5691;BME280;2870;42.680;23.364;2023-07-31T04:42:48;94815.03;;;22.10;88.25
5691;BME280;2870;42.680;23.364;2023-07-31T04:45:14;94816.38;;;22.41;87.73
5691;BME280;2870;42.680;23.364;2023-07-31T04:47:41;94814.56;;;22.32;87.29
5691;BME280;2870;42.680;23.364;2023-07-31T04:50:10;94807.38;;;22.31;87.14
5691;BME280;2870;42.680;23.364;2023-07-31T04:52:36;94808.13;;;22.15;87.76
5691;BME280;2870;42.680;23.364;2023-07-31T04:55:04;94811.53;;;22.61;85.84
5691;BME280;2870;42.680;23.364;2023-07-31T04:57:31;94812.84;;;22.58;85.26
5691;BME280;2870;42.680;23.364;2023-07-31T04:59:57;94809.97;;;22.58;84.71
5691;BME280;2870;42.680;23.364;2023-07-31T05:02:24;94807.41;;;22.48;85.06
5691;BME280;2870;42.680;23.364;2023-07-31T05:04:51;94808.47;;;22.23;86.23
5691;BME280;2870;42.680;23.364;2023-07-31T05:07:19;94802.44;;;22.49;86.11
5691;BME280;2870;42.680;23.364;2023-07-31T05:09:46;94804.16;;;22.90;84.12
5691;BME280;2870;42.680;23.364;2023-07-31T05:12:12;94810.75;;;22.77;83.80
5691;BME280;2870;42.680;23.364;2023-07-31T05:14:39;94810.97;;;22.65;83.97
5691;BME280;2870;42.680;23.364;2023-07-31T05:17:06;94799.09;;;22.55;84.95
5691;BME280;2870;42.680;23.364;2023-07-31T05:19:33;94803.88;;;22.84;84.03
5691;BME280;2870;42.680;23.364;2023-07-31T05:21:59;94802.16;;;23.10;82.13
5691;BME280;2870;42.680;23.364;2023-07-31T05:24:28;94798.31;;;23.21;81.49
5691;BME280;2870;42.680;23.364;2023-07-31T05:26:55;94791.25;;;23.42;80.26
5691;BME280;2870;42.680;23.364;2023-07-31T05:29:21;94790.56;;;23.62;80.13
5691;BME280;2870;42.680;23.364;2023-07-31T05:31:48;94791.03;;;23.18;80.16
5691;BME280;2870;42.680;23.364;2023-07-31T05:34:15;94798.84;;;23.36;79.37
5691;BME280;2870;42.680;23.364;2023-07-31T05:36:41;94796.75;;;23.00;80.51
5691;BME280;2870;42.680;23.364;2023-07-31T05:39:08;94792.16;;;23.29;79.51
5691;BME280;2870;42.680;23.364;2023-07-31T05:41:36;94801.88;;;23.40;78.88
5691;BME280;2870;42.680;23.364;2023-07-31T05:44:03;94797.66;;;23.05;80.55
5691;BME280;2870;42.680;23.364;2023-07-31T05:46:30;94798.06;;;23.33;78.94
5691;BME280;2870;42.680;23.364;2023-07-31T05:48:57;94799.19;;;23.44;79.01
5691;BME280;2870;42.680;23.364;2023-07-31T05:51:26;94812.56;;;23.75;76.77
5691;BME280;2870;42.680;23.364;2023-07-31T05:53:53;94808.59;;;23.28;77.85
5691;BME280;2870;42.680;23.364;2023-07-31T05:56:19;94814.47;;;22.63;79.55
5691;BME280;2870;42.680;23.364;2023-07-31T05:58:48;94806.50;;;22.44;80.29
5691;BME280;2870;42.680;23.364;2023-07-31T06:01:16;94816.31;;;22.57;79.63
5691;BME280;2870;42.680;23.364;2023-07-31T06:03:43;94821.81;;;22.68;79.08
5691;BME280;2870;42.680;23.364;2023-07-31T06:06:10;94818.59;;;23.10;76.89
5691;BME280;2870;42.680;23.364;2023-07-31T06:08:37;94817.91;;;22.93;77.39
5691;BME280;2870;42.680;23.364;2023-07-31T06:11:03;94823.78;;;23.51;75.14
5691;BME280;2870;42.680;23.364;2023-07-31T06:13:31;94823.72;;;23.13;74.92
5691;BME280;2870;42.680;23.364;2023-07-31T06:15:59;94814.25;;;23.26;75.10
5691;BME280;2870;42.680;23.364;2023-07-31T06:18:30;94815.63;;;23.61;73.60
5691;BME280;2870;42.680;23.364;2023-07-31T06:20:57;94817.50;;;23.72;71.70
5691;BME280;2870;42.680;23.364;2023-07-31T06:23:24;94810.72;;;23.64;73.13
5691;BME280;2870;42.680;23.364;2023-07-31T06:25:50;94804.72;;;23.75;71.14
5691;BME280;2870;42.680;23.364;2023-07-31T06:28:17;94830.66;;;24.37;69.78
5691;BME280;2870;42.680;23.364;2023-07-31T06:30:44;94825.50;;;24.53;68.13
5691;BME280;2870;42.680;23.364;2023-07-31T06:33:12;94817.38;;;24.88;66.36
5691;BME280;2870;42.680;23.364;2023-07-31T06:35:39;94815.94;;;24.67;67.09
5691;BME280;2870;42.680;23.364;2023-07-31T06:38:05;94815.78;;;24.03;68.80
5691;BME280;2870;42.680;23.364;2023-07-31T06:40:32;94816.03;;;24.29;69.69
5691;BME280;2870;42.680;23.364;2023-07-31T06:42:59;94826.09;;;24.30;67.96
5691;BME280;2870;42.680;23.364;2023-07-31T06:45:31;94826.41;;;24.58;66.56
5691;BME280;2870;42.680;23.364;2023-07-31T06:47:58;94812.41;;;24.28;67.65
5691;BME280;2870;42.680;23.364;2023-07-31T06:50:28;94825.78;;;24.02;68.84
5691;BME280;2870;42.680;23.364;2023-07-31T06:52:55;94836.00;;;24.27;67.82
5691;BME280;2870;42.680;23.364;2023-07-31T06:55:22;94824.31;;;24.21;67.77
5691;BME280;2870;42.680;23.364;2023-07-31T06:57:50;94835.50;;;24.52;67.90
5691;BME280;2870;42.680;23.364;2023-07-31T07:00:18;94837.09;;;24.18;67.57
5691;BME280;2870;42.680;23.364;2023-07-31T07:02:45;94827.59;;;24.51;67.46
5691;BME280;2870;42.680;23.364;2023-07-31T07:05:13;94835.03;;;25.22;64.72
5691;BME280;2870;42.680;23.364;2023-07-31T07:07:42;94837.25;;;25.69;62.79
5691;BME280;2870;42.680;23.364;2023-07-31T07:10:09;94829.13;;;25.83;61.70
5691;BME280;2870;42.680;23.364;2023-07-31T07:12:36;94829.25;;;25.00;61.61
5691;BME280;2870;42.680;23.364;2023-07-31T07:15:03;94838.56;;;24.78;63.83
5691;BME280;2870;42.680;23.364;2023-07-31T07:17:30;94823.66;;;24.22;64.91
5691;BME280;2870;42.680;23.364;2023-07-31T07:19:57;94823.66;;;24.22;65.09
5691;BME280;2870;42.680;23.364;2023-07-31T07:22:24;94829.31;;;24.60;64.62
5691;BME280;2870;42.680;23.364;2023-07-31T07:24:52;94832.13;;;25.00;63.08
5691;BME280;2870;42.680;23.364;2023-07-31T07:27:19;94840.22;;;25.71;60.55
5691;BME280;2870;42.680;23.364;2023-07-31T07:29:46;94841.97;;;26.04;60.08
5691;BME280;2870;42.680;23.364;2023-07-31T07:32:13;94840.66;;;25.85;58.85
5691;BME280;2870;42.680;23.364;2023-07-31T07:34:40;94834.16;;;25.39;60.00
5691;BME280;2870;42.680;23.364;2023-07-31T07:37:07;94838.59;;;25.66;60.89
5691;BME280;2870;42.680;23.364;2023-07-31T07:39:33;94844.84;;;26.30;58.01
5691;BME280;2870;42.680;23.364;2023-07-31T07:42:02;94841.56;;;26.66;56.38
5691;BME280;2870;42.680;23.364;2023-07-31T07:44:29;94837.81;;;26.35;57.51
5691;BME280;2870;42.680;23.364;2023-07-31T07:46:55;94838.34;;;26.54;57.17
5691;BME280;2870;42.680;23.364;2023-07-31T07:49:22;94846.19;;;26.77;56.89
5691;BME280;2870;42.680;23.364;2023-07-31T07:51:49;94849.09;;;27.05;56.53
5691;BME280;2870;42.680;23.364;2023-07-31T07:54:16;94843.81;;;26.95;54.66
5691;BME280;2870;42.680;23.364;2023-07-31T07:56:43;94844.22;;;26.84;54.97
5691;BME280;2870;42.680;23.364;2023-07-31T07:59:11;94850.13;;;26.38;55.42
5691;BME280;2870;42.680;23.364;2023-07-31T08:01:38;94852.25;;;27.15;54.22
5691;BME280;2870;42.680;23.364;2023-07-31T08:04:04;94850.81;;;27.44;53.00
5691;BME280;2870;42.680;23.364;2023-07-31T08:06:31;94851.53;;;28.71;49.22
5691;BME280;2870;42.680;23.364;2023-07-31T08:08:59;94851.63;;;28.41;48.85
5691;BME280;2870;42.680;23.364;2023-07-31T08:11:30;94851.19;;;29.29;47.88
5691;BME280;2870;42.680;23.364;2023-07-31T08:13:57;94856.19;;;28.52;48.86
5691;BME280;2870;42.680;23.364;2023-07-31T08:16:25;94856.47;;;26.84;52.07
5691;BME280;2870;42.680;23.364;2023-07-31T08:18:52;94851.00;;;27.23;51.69
5691;BME280;2870;42.680;23.364;2023-07-31T08:21:19;94846.59;;;26.91;52.32
5691;BME280;2870;42.680;23.364;2023-07-31T08:23:46;94841.78;;;27.86;51.00
5691;BME280;2870;42.680;23.364;2023-07-31T08:26:15;94848.59;;;28.69;47.62
5691;BME280;2870;42.680;23.364;2023-07-31T08:28:42;94833.22;;;28.59;47.08
5691;BME280;2870;42.680;23.364;2023-07-31T08:31:08;94843.34;;;30.29;44.01
5691;BME280;2870;42.680;23.364;2023-07-31T08:33:37;94847.09;;;29.89;45.88
5691;BME280;2870;42.680;23.364;2023-07-31T08:36:04;94840.31;;;30.73;42.80
5691;BME280;2870;42.680;23.364;2023-07-31T08:38:31;94849.47;;;30.55;42.40
5691;BME280;2870;42.680;23.364;2023-07-31T08:40:58;94853.06;;;31.14;42.37
5691;BME280;2870;42.680;23.364;2023-07-31T08:43:26;94843.44;;;29.42;44.25
5691;BME280;2870;42.680;23.364;2023-07-31T08:45:53;94839.50;;;29.64;46.36
5691;BME280;2870;42.680;23.364;2023-07-31T08:48:21;94838.03;;;28.82;45.59
5691;BME280;2870;42.680;23.364;2023-07-31T08:50:51;94838.91;;;29.73;46.48
5691;BME280;2870;42.680;23.364;2023-07-31T08:53:18;94843.38;;;29.38;43.99
5691;BME280;2870;42.680;23.364;2023-07-31T08:55:45;94832.09;;;28.38;46.28
5691;BME280;2870;42.680;23.364;2023-07-31T08:58:13;94842.16;;;26.88;48.19
5691;BME280;2870;42.680;23.364;2023-07-31T09:00:40;94839.88;;;28.31;46.89
5691;BME280;2870;42.680;23.364;2023-07-31T09:03:13;94832.81;;;28.38;46.13
5691;BME280;2870;42.680;23.364;2023-07-31T09:05:42;94837.28;;;28.82;44.78
5691;BME280;2870;42.680;23.364;2023-07-31T09:08:11;94836.88;;;28.97;46.34
5691;BME280;2870;42.680;23.364;2023-07-31T09:10:41;94841.34;;;29.91;44.55
5691;BME280;2870;42.680;23.364;2023-07-31T09:13:08;94828.34;;;29.92;42.50
5691;BME280;2870;42.680;23.364;2023-07-31T09:15:35;94835.72;;;29.13;43.74
5691;BME280;2870;42.680;23.364;2023-07-31T09:18:04;94835.03;;;28.08;46.14
5691;BME280;2870;42.680;23.364;2023-07-31T09:20:32;94827.94;;;28.47;45.71
5691;BME280;2870;42.680;23.364;2023-07-31T09:23:05;94825.38;;;29.42;43.57
5691;BME280;2870;42.680;23.364;2023-07-31T09:25:35;94827.84;;;30.60;42.41
5691;BME280;2870;42.680;23.364;2023-07-31T09:28:03;94820.50;;;29.99;42.64
5691;BME280;2870;42.680;23.364;2023-07-31T09:30:31;94816.63;;;29.80;42.27
5691;BME280;2870;42.680;23.364;2023-07-31T09:33:02;94815.69;;;29.23;44.65
5691;BME280;2870;42.680;23.364;2023-07-31T09:35:32;94816.78;;;29.03;44.86
5691;BME280;2870;42.680;23.364;2023-07-31T09:38:00;94813.03;;;30.34;41.97
5691;BME280;2870;42.680;23.364;2023-07-31T09:40:30;94817.28;;;31.60;39.96
5691;BME280;2870;42.680;23.364;2023-07-31T09:43:00;94812.00;;;32.36;39.01
5691;BME280;2870;42.680;23.364;2023-07-31T09:45:27;94815.75;;;31.49;39.15
5691;BME280;2870;42.680;23.364;2023-07-31T09:47:55;94810.19;;;30.36;41.84
5691;BME280;2870;42.680;23.364;2023-07-31T09:50:23;94803.06;;;29.95;42.66
5691;BME280;2870;42.680;23.364;2023-07-31T09:52:51;94801.84;;;30.10;43.65
5691;BME280;2870;42.680;23.364;2023-07-31T09:55:18;94801.22;;;30.16;44.12
5691;BME280;2870;42.680;23.364;2023-07-31T09:57:47;94804.13;;;30.16;41.81
5691;BME280;2870;42.680;23.364;2023-07-31T10:00:17;94794.50;;;29.52;42.63
5691;BME280;2870;42.680;23.364;2023-07-31T10:02:45;94804.69;;;29.13;43.05
5691;BME280;2870;42.680;23.364;2023-07-31T10:05:13;94792.34;;;28.00;45.34
5691;BME280;2870;42.680;23.364;2023-07-31T10:07:43;94798.25;;;28.78;44.34
5691;BME280;2870;42.680;23.364;2023-07-31T10:10:10;94797.19;;;28.98;44.87
5691;BME280;2870;42.680;23.364;2023-07-31T10:12:37;94795.72;;;28.59;43.64
5691;BME280;2870;42.680;23.364;2023-07-31T10:15:05;94786.75;;;27.74;45.52
5691;BME280;2870;42.680;23.364;2023-07-31T10:17:35;94792.13;;;28.98;44.04
5691;BME280;2870;42.680;23.364;2023-07-31T10:20:03;94787.88;;;28.63;43.37
5691;BME280;2870;42.680;23.364;2023-07-31T10:22:31;94799.00;;;28.79;43.75
5691;BME280;2870;42.680;23.364;2023-07-31T10:24:59;94769.84;;;27.92;44.21
5691;BME280;2870;42.680;23.364;2023-07-31T10:27:26;94788.44;;;29.34;43.27
5691;BME280;2870;42.680;23.364;2023-07-31T10:29:55;94800.97;;;30.54;40.38
5691;BME280;2870;42.680;23.364;2023-07-31T10:32:22;94793.44;;;29.78;41.04
5691;BME280;2870;42.680;23.364;2023-07-31T10:34:51;94791.44;;;30.43;40.63
5691;BME280;2870;42.680;23.364;2023-07-31T10:37:24;94794.91;;;31.71;38.04
5691;BME280;2870;42.680;23.364;2023-07-31T10:39:56;94786.44;;;32.08;36.66
5691;BME280;2870;42.680;23.364;2023-07-31T10:42:27;94791.81;;;32.70;35.79
5691;BME280;2870;42.680;23.364;2023-07-31T10:44:57;94776.38;;;32.31;36.45
5691;BME280;2870;42.680;23.364;2023-07-31T10:47:23;94784.47;;;32.45;36.42
5691;BME280;2870;42.680;23.364;2023-07-31T10:49:52;94778.69;;;32.59;34.61
5691;BME280;2870;42.680;23.364;2023-07-31T10:52:20;94770.78;;;32.80;35.39
5691;BME280;2870;42.680;23.364;2023-07-31T10:54:49;94775.84;;;32.71;35.49
5691;BME280;2870;42.680;23.364;2023-07-31T10:57:20;94769.63;;;31.88;35.78
5691;BME280;2870;42.680;23.364;2023-07-31T10:59:47;94770.53;;;31.20;37.84
5691;BME280;2870;42.680;23.364;2023-07-31T11:02:24;94769.94;;;32.47;36.07
5691;BME280;2870;42.680;23.364;2023-07-31T11:05:08;94770.72;;;31.38;37.22
5691;BME280;2870;42.680;23.364;2023-07-31T11:07:48;94769.50;;;31.70;36.98
5691;BME280;2870;42.680;23.364;2023-07-31T11:10:17;94760.53;;;31.33;37.08
5691;BME280;2870;42.680;23.364;2023-07-31T11:12:45;94757.81;;;31.59;36.97
5691;BME280;2870;42.680;23.364;2023-07-31T11:15:12;94757.66;;;31.33;35.59
5691;BME280;2870;42.680;23.364;2023-07-31T11:17:39;94752.53;;;30.56;37.36
5691;BME280;2870;42.680;23.364;2023-07-31T11:20:08;94765.13;;;30.21;37.37
5691;BME280;2870;42.680;23.364;2023-07-31T11:22:35;94751.16;;;30.64;36.72
5691;BME280;2870;42.680;23.364;2023-07-31T11:25:03;94744.69;;;31.44;35.91
5691;BME280;2870;42.680;23.364;2023-07-31T11:27:30;94756.97;;;30.68;36.57
5691;BME280;2870;42.680;23.364;2023-07-31T11:30:00;94751.88;;;31.37;36.21
5691;BME280;2870;42.680;23.364;2023-07-31T11:32:27;94753.00;;;31.99;35.27
5691;BME280;2870;42.680;23.364;2023-07-31T11:34:54;94754.31;;;30.23;36.95
5691;BME280;2870;42.680;23.364;2023-07-31T11:37:23;94744.03;;;30.12;37.88
5691;BME280;2870;42.680;23.364;2023-07-31T11:39:59;94744.22;;;29.72;37.97
5691;BME280;2870;42.680;23.364;2023-07-31T11:42:26;94743.75;;;30.48;37.59
5691;BME280;2870;42.680;23.364;2023-07-31T11:44:53;94742.81;;;30.96;36.03
5691;BME280;2870;42.680;23.364;2023-07-31T11:47:20;94746.78;;;30.60;37.55
5691;BME280;2870;42.680;23.364;2023-07-31T11:49:47;94741.41;;;29.78;38.97
5691;BME280;2870;42.680;23.364;2023-07-31T11:52:15;94738.88;;;30.06;39.73
5691;BME280;2870;42.680;23.364;2023-07-31T11:54:46;94733.00;;;29.01;40.19
5691;BME280;2870;42.680;23.364;2023-07-31T11:57:13;94732.94;;;29.44;39.56
5691;BME280;2870;42.680;23.364;2023-07-31T11:59:41;94727.06;;;30.43;38.39
5691;BME280;2870;42.680;23.364;2023-07-31T12:02:09;94740.81;;;29.86;38.55
5691;BME280;2870;42.680;23.364;2023-07-31T12:04:35;94734.44;;;29.95;38.19
5691;BME280;2870;42.680;23.364;2023-07-31T12:07:04;94732.66;;;29.72;38.84
5691;BME280;2870;42.680;23.364;2023-07-31T12:09:31;94737.13;;;29.81;38.10
5691;BME280;2870;42.680;23.364;2023-07-31T12:11:59;94720.59;;;29.88;38.38
5691;BME280;2870;42.680;23.364;2023-07-31T12:14:28;94730.47;;;30.25;38.28
5691;BME280;2870;42.680;23.364;2023-07-31T12:16:55;94717.69;;;29.37;39.11
5691;BME280;2870;42.680;23.364;2023-07-31T12:19:22;94713.59;;;29.52;38.77
5691;BME280;2870;42.680;23.364;2023-07-31T12:21:49;94709.09;;;29.94;38.28
5691;BME280;2870;42.680;23.364;2023-07-31T12:24:18;94707.00;;;29.46;38.38
5691;BME280;2870;42.680;23.364;2023-07-31T12:26:46;94718.56;;;29.98;39.53
5691;BME280;2870;42.680;23.364;2023-07-31T12:29:14;94694.75;;;29.49;40.34
5691;BME280;2870;42.680;23.364;2023-07-31T12:31:41;94707.78;;;29.50;40.39
5691;BME280;2870;42.680;23.364;2023-07-31T12:34:15;94714.53;;;29.67;39.24
5691;BME280;2870;42.680;23.364;2023-07-31T12:36:43;94713.63;;;29.08;39.83
5691;BME280;2870;42.680;23.364;2023-07-31T12:39:10;94711.59;;;28.74;40.71
5691;BME280;2870;42.680;23.364;2023-07-31T12:41:36;94708.75;;;29.21;40.53
5691;BME280;2870;42.680;23.364;2023-07-31T12:44:03;94710.66;;;29.50;40.86
5691;BME280;2870;42.680;23.364;2023-07-31T12:46:31;94702.59;;;29.43;39.91
5691;BME280;2870;42.680;23.364;2023-07-31T12:48:58;94699.88;;;28.64;40.53
5691;BME280;2870;42.680;23.364;2023-07-31T12:51:25;94692.00;;;28.69;40.64
5691;BME280;2870;42.680;23.364;2023-07-31T12:53:52;94691.88;;;29.01;40.16
5691;BME280;2870;42.680;23.364;2023-07-31T12:56:18;94686.06;;;28.99;40.39
5691;BME280;2870;42.680;23.364;2023-07-31T12:58:45;94692.00;;;28.69;40.57
5691;BME280;2870;42.680;23.364;2023-07-31T13:01:12;94682.84;;;29.27;40.21
5691;BME280;2870;42.680;23.364;2023-07-31T13:03:40;94693.63;;;29.71;40.05
5691;BME280;2870;42.680;23.364;2023-07-31T13:06:07;94679.53;;;29.45;39.80
5691;BME280;2870;42.680;23.364;2023-07-31T13:08:33;94679.78;;;29.63;40.33
5691;BME280;2870;42.680;23.364;2023-07-31T13:11:00;94690.66;;;29.67;39.37
5691;BME280;2870;42.680;23.364;2023-07-31T13:13:27;94680.53;;;29.66;39.22
5691;BME280;2870;42.680;23.364;2023-07-31T13:15:55;94678.03;;;28.93;41.11